createdAt,value
2022-10-19T00:01:24.748Z,12.30
2022-10-19T00:06:46.903Z,12.40
2022-10-19T00:12:08.964Z,12.30
2022-10-19T00:17:31.408Z,12.20
2022-10-19T00:22:53.716Z,12.20
2022-10-19T00:28:15.785Z,12.20
2022-10-19T00:33:37.852Z,12.40
2022-10-19T00:39:00.040Z,12.40
2022-10-19T00:44:31.283Z,12.40
2022-10-19T00:49:55.067Z,12.50
2022-10-19T00:55:17.284Z,12.40
2022-10-19T01:00:39.568Z,12.40
2022-10-19T01:06:01.905Z,12.40
2022-10-19T01:11:37.168Z,12.40
2022-10-19T01:17:19.355Z,12.30
2022-10-19T01:23:10.253Z,12.30
2022-10-19T01:28:56.025Z,12.20
2022-10-19T01:34:32.785Z,12.20
2022-10-19T01:40:05.430Z,12.10
2022-10-19T01:45:49.344Z,12.00
2022-10-19T01:51:17.433Z,12.00
2022-10-19T01:56:42.708Z,12.10
2022-10-19T02:02:06.956Z,12.20
2022-10-19T02:07:30.183Z,12.30
2022-10-19T02:12:55.115Z,12.30
2022-10-19T02:18:25.698Z,12.30
2022-10-19T02:23:49.364Z,12.20
2022-10-19T02:29:15.266Z,12.20
2022-10-19T02:34:39.116Z,12.20
2022-10-19T02:40:01.299Z,12.20
2022-10-19T02:45:28.304Z,12.30
2022-10-19T02:50:52.052Z,12.30
2022-10-19T02:56:14.139Z,12.30
2022-10-19T03:01:36.416Z,12.30
2022-10-19T03:06:58.504Z,12.30
2022-10-19T03:12:20.597Z,12.30
2022-10-19T03:17:42.747Z,12.40
2022-10-19T03:23:04.846Z,12.30
2022-10-19T03:28:26.984Z,12.20
2022-10-19T03:33:49.795Z,12.10
2022-10-19T03:39:14.053Z,12.00
2022-10-19T03:44:36.142Z,11.90
2022-10-19T03:49:58.239Z,11.80
2022-10-19T03:55:20.318Z,11.70
2022-10-19T04:00:42.421Z,11.70
2022-10-19T04:06:07.564Z,11.80
2022-10-19T04:11:31.029Z,11.90
2022-10-19T04:16:53.091Z,11.80
2022-10-19T04:22:16.195Z,11.60
2022-10-19T04:27:38.344Z,11.60
2022-10-19T04:33:00.435Z,11.50
2022-10-19T04:38:22.502Z,11.40
2022-10-19T04:43:45.389Z,11.30
2022-10-19T04:49:07.783Z,11.20
2022-10-19T04:54:29.865Z,11.20
2022-10-19T04:59:51.928Z,11.20
2022-10-19T05:05:14.734Z,11.20
2022-10-19T05:10:37.768Z,11.10
2022-10-19T05:16:01.940Z,11.00
2022-10-19T05:21:24.575Z,10.90
2022-10-19T05:26:46.679Z,11.10
2022-10-19T05:32:08.842Z,10.90
2022-10-19T05:37:31.023Z,10.80
2022-10-19T05:42:53.316Z,10.70
2022-10-19T05:48:15.385Z,10.60
2022-10-19T05:59:03.553Z,10.60
2022-10-19T06:04:25.801Z,10.60
2022-10-19T06:09:48.314Z,10.60
2022-10-19T06:15:10.581Z,10.60
2022-10-19T06:20:35.352Z,10.70
2022-10-19T06:25:57.581Z,10.80
2022-10-19T06:31:19.664Z,11.00
2022-10-19T06:36:41.770Z,11.20
2022-10-19T06:42:03.945Z,11.50
2022-10-19T06:47:31.286Z,11.60
2022-10-19T06:52:53.509Z,11.70
2022-10-19T06:58:15.618Z,11.90
2022-10-19T07:03:38.517Z,11.70
2022-10-19T07:09:02.912Z,11.70
2022-10-19T07:14:28.859Z,11.80
2022-10-19T07:19:51.830Z,11.90
2022-10-19T07:25:14.815Z,11.90
2022-10-19T07:30:39.425Z,11.80
2022-10-19T07:36:05.470Z,11.70
2022-10-19T07:41:29.051Z,11.70
2022-10-19T07:46:52.023Z,11.90
2022-10-19T07:52:15.565Z,12.10
2022-10-19T07:57:40.004Z,12.10
2022-10-19T08:08:53.660Z,12.00
2022-10-19T08:14:19.840Z,12.10
2022-10-19T08:19:43.783Z,12.10
2022-10-19T08:25:18.701Z,12.00
2022-10-19T08:30:46.727Z,12.20
2022-10-19T08:36:12.224Z,12.50
2022-10-19T08:42:06.403Z,12.70
2022-10-19T08:48:06.365Z,12.50
2022-10-19T08:53:50.635Z,12.30
2022-10-19T08:59:32.036Z,12.00
2022-10-19T09:05:06.674Z,11.70
2022-10-19T09:10:35.171Z,11.60
2022-10-19T09:16:18.437Z,11.80
2022-10-19T09:21:50.609Z,11.90
2022-10-19T09:27:33.758Z,12.00
2022-10-19T09:33:06.018Z,12.00
2022-10-19T09:38:33.011Z,12.00
2022-10-19T09:43:56.800Z,12.30
2022-10-19T09:49:38.193Z,12.60
2022-10-19T09:55:15.102Z,13.30
2022-10-19T10:00:43.363Z,13.30
2022-10-19T10:06:09.437Z,13.00
2022-10-19T10:11:38.552Z,12.70
2022-10-19T10:17:29.286Z,12.40
2022-10-19T10:22:58.336Z,12.50
2022-10-19T10:28:25.196Z,12.50
2022-10-19T10:34:12.244Z,12.60
2022-10-19T10:39:49.045Z,12.50
2022-10-19T10:45:25.861Z,12.50
2022-10-19T10:50:53.737Z,12.80
2022-10-19T10:56:27.080Z,13.60
2022-10-19T11:02:07.267Z,13.50
2022-10-19T11:07:40.559Z,13.10
2022-10-19T11:13:25.428Z,12.80
2022-10-19T11:18:54.343Z,12.70
2022-10-19T11:24:42.748Z,12.60
2022-10-19T11:30:22.345Z,12.20
2022-10-19T11:35:58.446Z,12.10
2022-10-19T11:41:53.343Z,12.20
2022-10-19T11:47:29.322Z,12.10
2022-10-19T11:53:00.553Z,12.30
2022-10-19T11:58:44.886Z,12.50
2022-10-19T12:04:28.944Z,12.70
2022-10-19T12:10:03.789Z,12.50
2022-10-19T12:15:30.044Z,12.40
2022-10-19T12:20:56.798Z,12.30
2022-10-19T12:26:22.334Z,12.30
2022-10-19T12:31:46.842Z,12.30
2022-10-19T12:37:12.849Z,12.10
2022-10-19T12:42:56.384Z,11.90
2022-10-19T12:48:23.046Z,11.80
2022-10-19T12:54:07.232Z,12.00
2022-10-19T12:59:36.842Z,11.90
2022-10-19T13:05:06.221Z,11.80
2022-10-19T13:10:31.829Z,11.90
2022-10-19T13:15:56.016Z,11.90
2022-10-19T13:21:49.172Z,11.90
2022-10-19T13:27:25.392Z,11.90
2022-10-19T13:32:48.551Z,11.80
2022-10-19T13:38:16.940Z,11.70
2022-10-19T13:43:39.235Z,11.90
2022-10-19T13:49:01.480Z,11.90
2022-10-19T13:54:54.880Z,12.10
2022-10-19T14:00:22.610Z,12.00
2022-10-19T14:06:03.931Z,11.80
2022-10-19T14:11:40.698Z,11.60
2022-10-19T14:17:04.461Z,11.70
2022-10-19T14:22:31.010Z,11.70
2022-10-19T14:28:06.480Z,11.70
2022-10-19T14:33:40.293Z,11.70
2022-10-19T14:39:03.015Z,11.70
2022-10-19T14:44:38.565Z,11.60
2022-10-19T14:50:00.700Z,11.70
2022-10-19T14:55:23.408Z,11.60
2022-10-19T15:00:48.330Z,11.50
2022-10-19T15:06:25.747Z,11.30
2022-10-19T15:11:49.991Z,11.20
2022-10-19T15:17:31.950Z,11.10
2022-10-19T15:22:54.538Z,10.70
2022-10-19T15:28:40.766Z,10.60
2022-10-19T15:34:05.404Z,10.50
2022-10-19T15:39:39.736Z,10.60
2022-10-19T15:45:34.996Z,10.60
2022-10-19T15:50:57.659Z,10.50
2022-10-19T15:56:20.692Z,10.30
2022-10-19T16:01:44.098Z,10.20
2022-10-19T16:07:06.254Z,10.20
2022-10-19T16:12:28.332Z,10.20
2022-10-19T16:17:58.537Z,10.10
2022-10-19T16:28:48.820Z,10.20
2022-10-19T16:34:11.120Z,10.30
2022-10-19T16:39:33.327Z,10.30
2022-10-19T16:44:56.007Z,10.30
2022-10-19T16:50:18.156Z,10.30
2022-10-19T16:55:40.685Z,10.20
2022-10-19T17:01:18.304Z,10.10
2022-10-19T17:06:41.038Z,9.90
2022-10-19T17:12:03.608Z,9.90
2022-10-19T17:17:25.726Z,9.70
2022-10-19T17:22:47.804Z,9.80
2022-10-19T17:28:09.871Z,9.90
2022-10-19T17:33:32.350Z,9.90
2022-10-19T17:38:56.106Z,9.90
2022-10-19T17:44:19.830Z,9.80
2022-10-19T17:49:41.930Z,9.80
2022-10-19T17:55:12.774Z,9.60
2022-10-19T18:00:35.548Z,9.60
2022-10-19T18:06:10.695Z,9.50
2022-10-19T18:11:37.481Z,9.30
2022-10-19T18:16:59.563Z,9.20
2022-10-19T18:22:21.937Z,9.00
2022-10-19T18:27:44.046Z,8.90
2022-10-19T18:33:06.483Z,8.90
2022-10-19T18:38:29.761Z,8.80
2022-10-19T18:43:57.441Z,8.80
2022-10-19T18:49:19.560Z,8.80
2022-10-19T18:54:41.712Z,8.80
2022-10-19T19:00:04.946Z,8.80
2022-10-19T19:05:27.409Z,8.70
2022-10-19T19:10:49.489Z,8.60
2022-10-19T19:16:11.668Z,8.60
2022-10-19T19:21:35.621Z,8.50
2022-10-19T19:26:58.268Z,8.40
2022-10-19T19:32:20.973Z,8.40
2022-10-19T19:37:43.067Z,8.40
2022-10-19T19:43:05.151Z,8.20
2022-10-19T19:48:27.312Z,8.10
2022-10-19T19:53:49.443Z,8.00
2022-10-19T19:59:12.799Z,7.80
2022-10-19T20:04:34.950Z,7.70
2022-10-19T20:09:57.642Z,7.70
2022-10-19T20:15:20.045Z,7.80
2022-10-19T20:20:42.130Z,7.70
2022-10-19T20:26:04.661Z,7.60
2022-10-19T20:36:53.803Z,7.80
2022-10-19T20:42:17.128Z,7.80
2022-10-19T20:47:40.388Z,7.60
2022-10-19T20:53:02.536Z,7.40
2022-10-19T20:58:24.632Z,7.30
2022-10-19T21:03:53.071Z,7.30
2022-10-19T21:09:17.553Z,7.10
2022-10-19T21:14:39.724Z,7.00
2022-10-19T21:20:01.812Z,6.90
2022-10-19T21:25:23.956Z,6.80
2022-10-19T21:30:46.059Z,6.70
2022-10-19T21:36:09.451Z,6.50
2022-10-19T21:41:32.430Z,6.30
2022-10-19T21:46:54.556Z,6.20
2022-10-19T21:52:16.601Z,6.30
2022-10-19T21:57:38.766Z,6.40
2022-10-19T22:03:00.836Z,6.30
2022-10-19T22:08:22.919Z,5.90
2022-10-19T22:13:45.526Z,5.90
2022-10-19T22:19:07.830Z,5.80
2022-10-19T22:24:29.924Z,5.90
2022-10-19T22:29:52.971Z,5.80
2022-10-19T22:35:15.173Z,5.70
2022-10-19T22:40:37.281Z,5.60
2022-10-19T22:46:56.159Z,5.60
2022-10-19T22:52:58.806Z,5.40
2022-10-19T22:58:21.097Z,5.00
2022-10-19T23:03:43.745Z,4.90
2022-10-19T23:09:05.927Z,4.90
2022-10-19T23:14:28.207Z,5.00
2022-10-19T23:19:50.359Z,5.10
2022-10-19T23:25:12.516Z,4.90
2022-10-19T23:30:37.794Z,4.70
2022-10-19T23:36:16.529Z,4.50
2022-10-19T23:41:38.684Z,4.50
2022-10-19T23:47:00.771Z,4.60
2022-10-19T23:52:22.836Z,4.80
2022-10-19T23:57:44.918Z,4.80
